createdAt,value
2023-05-22T00:01:42.807Z,20.90
2023-05-22T00:04:10.138Z,20.88
2023-05-22T00:06:37.187Z,20.87
2023-05-22T00:09:03.873Z,20.85
2023-05-22T00:11:31.798Z,20.85
2023-05-22T00:13:58.462Z,20.83
2023-05-22T00:16:25.002Z,20.81
2023-05-22T00:18:51.613Z,20.81
2023-05-22T00:21:18.634Z,20.81
2023-05-22T00:23:45.788Z,20.80
2023-05-22T00:26:16.543Z,20.78
2023-05-22T00:28:43.235Z,20.76
2023-05-22T00:31:09.890Z,20.75
2023-05-22T00:33:36.764Z,20.72
2023-05-22T00:36:03.568Z,20.72
2023-05-22T00:38:32.963Z,20.72
2023-05-22T00:41:04.775Z,20.72
2023-05-22T00:43:32.127Z,20.71
2023-05-22T00:45:58.864Z,20.71
2023-05-22T00:48:25.717Z,20.70
2023-05-22T00:50:54.374Z,20.69
2023-05-22T00:53:22.017Z,20.70
2023-05-22T00:55:48.857Z,20.70
2023-05-22T00:58:17.262Z,20.71
2023-05-22T01:00:46.806Z,20.70
2023-05-22T01:03:14.029Z,20.68
2023-05-22T01:05:41.456Z,20.68
2023-05-22T01:08:08.803Z,20.68
2023-05-22T01:10:37.140Z,20.68
2023-05-22T01:13:30.270Z,20.65
2023-05-22T01:16:35.353Z,20.64
2023-05-22T01:19:10.907Z,20.64
2023-05-22T01:21:50.823Z,20.64
2023-05-22T01:24:41.987Z,20.64
2023-05-22T01:27:42.243Z,20.62
2023-05-22T01:30:46.922Z,20.62
2023-05-22T01:33:17.171Z,20.60
2023-05-22T01:35:46.870Z,20.61
2023-05-22T01:38:13.716Z,20.60
2023-05-22T01:40:41.008Z,20.58
2023-05-22T01:43:08.423Z,20.57
2023-05-22T01:45:35.168Z,20.55
2023-05-22T01:48:01.847Z,20.52
2023-05-22T01:50:28.481Z,20.48
2023-05-22T01:53:32.225Z,20.46
2023-05-22T01:56:06.834Z,20.44
2023-05-22T01:58:50.065Z,20.43
2023-05-22T02:01:18.062Z,20.43
2023-05-22T02:03:46.584Z,20.43
2023-05-22T02:06:14.182Z,20.45
2023-05-22T02:08:42.061Z,20.45
2023-05-22T02:11:10.459Z,20.46
2023-05-22T02:13:37.955Z,20.46
2023-05-22T02:16:05.145Z,20.46
2023-05-22T02:18:31.859Z,20.46
2023-05-22T02:20:59.273Z,20.46
2023-05-22T02:23:27.012Z,20.45
2023-05-22T02:25:55.458Z,20.42
2023-05-22T02:28:22.191Z,20.41
2023-05-22T02:30:48.770Z,20.39
2023-05-22T02:33:17.935Z,20.40
2023-05-22T02:35:45.621Z,20.39
2023-05-22T02:38:12.697Z,20.38
2023-05-22T02:40:40.067Z,20.35
2023-05-22T02:43:06.948Z,20.34
2023-05-22T02:45:33.647Z,20.33
2023-05-22T02:48:03.509Z,20.30
2023-05-22T02:50:30.291Z,20.28
2023-05-22T02:52:56.911Z,20.26
2023-05-22T02:55:23.536Z,20.25
2023-05-22T02:57:50.097Z,20.22
2023-05-22T03:00:17.337Z,20.22
2023-05-22T03:02:44.206Z,20.22
2023-05-22T03:05:10.989Z,20.20
2023-05-22T03:07:37.735Z,20.21
2023-05-22T03:10:04.718Z,20.23
2023-05-22T03:12:31.366Z,20.24
2023-05-22T03:14:57.967Z,20.24
2023-05-22T03:17:24.632Z,20.24
2023-05-22T03:19:51.357Z,20.25
2023-05-22T03:22:18.716Z,20.25
2023-05-22T03:24:45.874Z,20.25
2023-05-22T03:27:15.193Z,20.26
2023-05-22T03:29:41.863Z,20.27
2023-05-22T03:32:10.441Z,20.28
2023-05-22T03:34:37.014Z,20.27
2023-05-22T03:37:03.744Z,20.28
2023-05-22T03:39:31.621Z,20.30
2023-05-22T03:41:58.266Z,20.31
2023-05-22T03:44:24.898Z,20.32
2023-05-22T03:46:51.499Z,20.32
2023-05-22T03:49:18.339Z,20.35
2023-05-22T03:51:45.079Z,20.38
2023-05-22T03:54:11.720Z,20.40
2023-05-22T03:56:38.340Z,20.40
2023-05-22T03:59:04.963Z,20.43
2023-05-22T04:01:32.797Z,20.46
2023-05-22T04:03:59.517Z,20.52
2023-05-22T04:06:26.714Z,20.58
2023-05-22T04:08:54.050Z,20.66
2023-05-22T04:11:22.256Z,20.74
2023-05-22T04:13:50.412Z,20.83
2023-05-22T04:16:20.579Z,20.93
2023-05-22T04:18:47.281Z,21.06
2023-05-22T04:21:13.913Z,21.23
2023-05-22T04:23:43.392Z,21.42
2023-05-22T04:26:10.488Z,21.62
2023-05-22T04:28:37.983Z,21.80
2023-05-22T04:31:06.578Z,21.98
2023-05-22T04:33:34.553Z,22.13
2023-05-22T04:36:02.414Z,22.31
2023-05-22T04:38:29.269Z,22.50
2023-05-22T04:40:58.192Z,22.70
2023-05-22T04:43:26.848Z,22.94
2023-05-22T04:45:54.880Z,23.13
2023-05-22T04:48:24.030Z,23.26
2023-05-22T04:50:50.660Z,23.36
2023-05-22T04:53:17.312Z,23.43
2023-05-22T04:55:46.232Z,23.47
2023-05-22T04:58:12.826Z,23.49
2023-05-22T05:00:39.636Z,23.48
2023-05-22T05:03:08.282Z,23.45
2023-05-22T05:05:35.151Z,23.45
2023-05-22T05:10:32.324Z,23.47
2023-05-22T05:12:58.912Z,23.47
2023-05-22T05:15:27.450Z,23.44
2023-05-22T05:17:54.074Z,23.41
2023-05-22T05:20:20.918Z,23.41
2023-05-22T05:22:47.604Z,23.39
2023-05-22T05:25:14.259Z,23.38
2023-05-22T05:27:40.858Z,23.38
2023-05-22T05:30:08.801Z,23.42
2023-05-22T05:32:36.040Z,23.45
2023-05-22T05:35:02.877Z,23.50
2023-05-22T05:37:29.553Z,23.56
2023-05-22T05:39:56.196Z,23.62
2023-05-22T05:42:22.794Z,23.65
2023-05-22T05:44:49.540Z,23.66
2023-05-22T05:47:17.599Z,23.68
2023-05-22T05:49:44.280Z,23.71
2023-05-22T05:52:10.938Z,23.77
2023-05-22T05:54:37.600Z,23.85
2023-05-22T05:57:04.552Z,23.90
2023-05-22T05:59:32.161Z,23.97
2023-05-22T06:02:01.877Z,24.01
2023-05-22T06:04:31.559Z,24.06
2023-05-22T06:06:58.203Z,24.13
2023-05-22T06:09:24.816Z,24.19
2023-05-22T06:11:51.567Z,24.28
2023-05-22T06:14:18.194Z,24.36
2023-05-22T06:16:46.077Z,24.43
2023-05-22T06:19:13.095Z,24.49
2023-05-22T06:21:39.764Z,24.57
2023-05-22T06:24:06.589Z,24.58
2023-05-22T06:26:33.419Z,24.60
2023-05-22T06:29:00.146Z,24.62
2023-05-22T06:31:28.101Z,24.68
2023-05-22T06:33:55.407Z,24.68
2023-05-22T06:36:23.670Z,24.67
2023-05-22T06:38:50.359Z,24.66
2023-05-22T06:41:17.005Z,24.70
2023-05-22T06:43:43.587Z,24.75
2023-05-22T06:46:10.264Z,24.79
2023-05-22T06:48:36.924Z,24.80
2023-05-22T06:51:04.293Z,24.82
2023-05-22T06:53:30.856Z,24.83
2023-05-22T06:55:57.537Z,24.87
2023-05-22T06:58:26.911Z,25.00
2023-05-22T07:00:55.361Z,25.02
2023-05-22T07:03:22.098Z,25.05
2023-05-22T07:05:48.727Z,25.08
2023-05-22T07:08:15.482Z,25.15
2023-05-22T07:10:42.314Z,25.20
2023-05-22T07:13:09.021Z,25.21
2023-05-22T07:15:35.661Z,25.22
2023-05-22T07:18:02.343Z,25.22
2023-05-22T07:20:29.112Z,25.11
2023-05-22T07:22:55.749Z,25.00
2023-05-22T07:25:22.307Z,25.01
2023-05-22T07:27:48.980Z,25.08
2023-05-22T07:30:15.691Z,25.08
2023-05-22T07:32:42.378Z,25.06
2023-05-22T07:35:10.834Z,25.02
2023-05-22T07:37:38.814Z,25.02
2023-05-22T07:40:07.463Z,24.98
2023-05-22T07:42:34.468Z,24.76
2023-05-22T07:45:01.786Z,24.55
2023-05-22T07:47:28.404Z,24.45
2023-05-22T07:49:55.031Z,24.38
2023-05-22T07:52:21.875Z,24.42
2023-05-22T07:54:48.442Z,24.44
2023-05-22T07:57:15.746Z,24.45
2023-05-22T07:59:44.296Z,24.37
2023-05-22T08:02:13.045Z,24.38
2023-05-22T08:04:40.459Z,24.43
2023-05-22T08:07:07.265Z,24.50
2023-05-22T08:09:34.344Z,24.61
2023-05-22T08:12:01.294Z,24.72
2023-05-22T08:14:28.011Z,24.77
2023-05-22T08:16:54.709Z,24.76
2023-05-22T08:19:21.686Z,24.80
2023-05-22T08:21:48.342Z,24.88
2023-05-22T08:24:15.014Z,24.91
2023-05-22T08:26:43.204Z,24.84
2023-05-22T08:29:10.008Z,24.86
2023-05-22T08:31:36.796Z,24.87
2023-05-22T08:34:04.776Z,24.89
2023-05-22T08:36:34.313Z,24.85
2023-05-22T08:39:01.594Z,24.71
2023-05-22T08:41:28.689Z,24.62
2023-05-22T08:43:55.500Z,24.64
2023-05-22T08:46:26.318Z,24.77
2023-05-22T08:48:56.778Z,24.74
2023-05-22T08:51:28.451Z,24.80
2023-05-22T08:53:59.014Z,24.90
2023-05-22T08:56:29.115Z,24.94
2023-05-22T08:58:57.767Z,25.01
2023-05-22T09:01:24.792Z,25.13
2023-05-22T09:03:51.747Z,25.07
2023-05-22T09:06:18.692Z,25.08
2023-05-22T09:08:46.089Z,25.12
2023-05-22T09:11:13.334Z,25.15
2023-05-22T09:13:41.144Z,25.17
2023-05-22T09:16:09.923Z,25.18
2023-05-22T09:18:37.945Z,25.27
2023-05-22T09:21:11.373Z,25.21
2023-05-22T09:23:41.915Z,25.06
2023-05-22T09:26:08.568Z,25.00
2023-05-22T09:28:36.399Z,24.97
2023-05-22T09:31:04.517Z,25.03
2023-05-22T09:33:32.454Z,25.08
2023-05-22T09:35:59.971Z,25.08
2023-05-22T09:38:30.277Z,25.02
2023-05-22T09:40:57.369Z,24.91
2023-05-22T09:43:27.454Z,24.80
2023-05-22T09:46:00.376Z,24.78
2023-05-22T09:48:27.155Z,24.80
2023-05-22T09:50:54.700Z,24.90
2023-05-22T09:53:27.722Z,24.97
2023-05-22T09:55:56.246Z,24.92
2023-05-22T09:58:24.662Z,24.82
2023-05-22T10:00:51.291Z,24.67
2023-05-22T10:03:22.829Z,24.57
2023-05-22T10:05:51.782Z,24.62
2023-05-22T10:08:21.794Z,24.73
2023-05-22T10:10:54.799Z,24.74
2023-05-22T10:13:22.043Z,24.75
2023-05-22T10:15:49.690Z,24.84
2023-05-22T10:18:18.038Z,24.94
2023-05-22T10:20:47.150Z,24.94
2023-05-22T10:23:15.175Z,24.75
2023-05-22T10:25:42.120Z,24.72
2023-05-22T10:28:10.150Z,24.78
2023-05-22T10:30:46.554Z,24.81
2023-05-22T10:33:20.213Z,24.74
2023-05-22T10:35:57.336Z,24.67
2023-05-22T10:38:28.649Z,24.69
2023-05-22T10:40:55.851Z,24.68
2023-05-22T10:43:23.005Z,24.67
2023-05-22T10:45:49.646Z,24.67
2023-05-22T10:48:21.735Z,24.62
2023-05-22T10:50:53.068Z,24.69
2023-05-22T10:53:30.545Z,24.78
2023-05-22T10:55:58.246Z,24.75
2023-05-22T10:58:38.846Z,24.83
2023-05-22T11:01:16.322Z,24.87
2023-05-22T11:04:02.507Z,24.79
2023-05-22T11:06:38.373Z,24.70
2023-05-22T11:09:21.848Z,24.66
2023-05-22T11:12:16.357Z,24.83
2023-05-22T11:14:53.720Z,24.95
2023-05-22T11:17:25.978Z,25.04
2023-05-22T11:20:02.323Z,25.15
2023-05-22T11:23:10.979Z,25.16
2023-05-22T11:25:38.596Z,25.10
2023-05-22T11:28:06.339Z,25.16
2023-05-22T11:30:34.202Z,25.27
2023-05-22T11:33:01.849Z,25.35
2023-05-22T11:35:28.656Z,25.37
2023-05-22T11:37:56.277Z,25.37
2023-05-22T11:40:27.009Z,25.36
2023-05-22T11:42:54.140Z,25.27
2023-05-22T11:45:22.502Z,25.27
2023-05-22T11:47:49.165Z,25.34
2023-05-22T11:50:22.498Z,25.49
2023-05-22T11:52:56.556Z,25.58
2023-05-22T11:55:23.359Z,25.53
2023-05-22T11:57:50.005Z,25.52
2023-05-22T12:00:17.251Z,25.47
2023-05-22T12:02:51.619Z,25.27
2023-05-22T12:05:21.240Z,25.16
2023-05-22T12:07:47.987Z,25.24
2023-05-22T12:10:15.490Z,25.31
2023-05-22T12:12:43.524Z,25.30
2023-05-22T12:15:10.560Z,25.29
2023-05-22T12:17:38.619Z,25.27
2023-05-22T12:20:07.135Z,25.24
2023-05-22T12:22:33.798Z,25.20
2023-05-22T12:25:00.393Z,25.14
2023-05-22T12:27:32.645Z,25.09
2023-05-22T12:30:00.283Z,25.06
2023-05-22T12:32:29.751Z,24.99
2023-05-22T12:34:58.180Z,24.96
2023-05-22T12:37:28.351Z,24.96
2023-05-22T12:39:58.686Z,25.04
2023-05-22T12:42:26.182Z,25.08
2023-05-22T12:44:53.836Z,25.12
2023-05-22T12:47:20.885Z,25.16
2023-05-22T12:49:47.719Z,25.15
2023-05-22T12:52:14.487Z,25.15
2023-05-22T12:54:41.510Z,25.20
2023-05-22T12:57:08.325Z,25.28
2023-05-22T12:59:37.095Z,25.27
2023-05-22T13:02:07.159Z,25.28
2023-05-22T13:04:33.875Z,25.27
2023-05-22T13:07:00.538Z,25.33
2023-05-22T13:09:27.354Z,25.37
2023-05-22T13:11:54.131Z,25.35
2023-05-22T13:14:21.309Z,25.41
2023-05-22T13:16:47.902Z,25.39
2023-05-22T13:19:14.528Z,25.37
2023-05-22T13:21:41.229Z,25.24
2023-05-22T13:24:08.360Z,25.06
2023-05-22T13:26:35.049Z,24.96
2023-05-22T13:29:01.651Z,24.99
2023-05-22T13:31:28.384Z,25.05
2023-05-22T13:33:55.069Z,25.17
2023-05-22T13:36:21.871Z,25.30
2023-05-22T13:38:48.456Z,25.47
2023-05-22T13:41:15.650Z,25.56
2023-05-22T13:43:42.538Z,25.47
2023-05-22T13:46:09.155Z,25.30
2023-05-22T13:48:35.806Z,25.32
2023-05-22T13:51:02.891Z,25.42
2023-05-22T13:53:29.506Z,25.54
2023-05-22T13:55:56.216Z,25.72
2023-05-22T13:58:22.736Z,25.73
2023-05-22T14:00:49.333Z,25.45
2023-05-22T14:03:17.821Z,25.12
2023-05-22T14:05:45.071Z,24.91
2023-05-22T14:08:11.752Z,24.76
2023-05-22T14:10:38.843Z,24.63
2023-05-22T14:13:08.147Z,24.44
2023-05-22T14:15:34.975Z,24.19
2023-05-22T14:18:01.621Z,24.05
2023-05-22T14:20:28.334Z,23.90
2023-05-22T14:22:58.198Z,23.77
2023-05-22T14:25:26.342Z,23.68
2023-05-22T14:27:53.148Z,23.64
2023-05-22T14:30:19.931Z,23.59
2023-05-22T14:32:47.002Z,23.65
2023-05-22T14:35:13.824Z,24.01
2023-05-22T14:37:40.475Z,24.20
2023-05-22T14:40:07.802Z,24.10
2023-05-22T14:42:35.029Z,24.18
2023-05-22T14:45:01.832Z,24.31
2023-05-22T14:47:28.431Z,24.38
2023-05-22T14:49:57.654Z,24.47
2023-05-22T14:52:29.745Z,24.43
2023-05-22T14:54:56.290Z,24.28
2023-05-22T14:57:22.904Z,24.15
2023-05-22T14:59:49.498Z,24.04
2023-05-22T15:02:16.345Z,23.99
2023-05-22T15:04:44.839Z,24.00
2023-05-22T15:07:11.893Z,23.93
2023-05-22T15:09:38.994Z,23.83
2023-05-22T15:12:06.986Z,23.82
2023-05-22T15:14:33.584Z,23.68
2023-05-22T15:17:01.498Z,23.52
2023-05-22T15:19:28.133Z,23.57
2023-05-22T15:21:56.078Z,23.65
2023-05-22T15:24:23.910Z,23.84
2023-05-22T15:26:50.721Z,24.15
2023-05-22T15:29:17.881Z,24.43
2023-05-22T15:31:44.527Z,24.59
2023-05-22T15:34:11.228Z,24.65
2023-05-22T15:36:37.941Z,24.64
2023-05-22T15:39:04.683Z,24.73
2023-05-22T15:41:31.335Z,24.83
2023-05-22T15:43:57.917Z,24.79
2023-05-22T15:46:24.493Z,24.60
2023-05-22T15:48:51.223Z,24.39
2023-05-22T15:51:17.828Z,24.27
2023-05-22T15:53:44.434Z,24.26
2023-05-22T15:56:11.053Z,24.22
2023-05-22T15:58:37.663Z,24.06
2023-05-22T16:01:04.287Z,23.84
2023-05-22T16:03:32.102Z,23.51
2023-05-22T16:05:58.811Z,23.20
2023-05-22T16:08:28.326Z,22.91
2023-05-22T16:10:56.787Z,22.72
2023-05-22T16:13:23.518Z,22.62
2023-05-22T16:15:50.146Z,22.61
2023-05-22T16:18:16.770Z,22.60
2023-05-22T16:20:43.481Z,22.62
2023-05-22T16:23:10.318Z,22.65
2023-05-22T16:25:36.999Z,22.68
2023-05-22T16:28:05.604Z,22.69
2023-05-22T16:30:32.331Z,22.60
2023-05-22T16:32:59.003Z,22.50
2023-05-22T16:35:26.018Z,22.41
2023-05-22T16:37:52.641Z,22.35
2023-05-22T16:40:19.334Z,22.27
2023-05-22T16:42:46.046Z,22.22
2023-05-22T16:45:12.810Z,22.20
2023-05-22T16:47:39.669Z,22.16
2023-05-22T16:50:07.188Z,22.13
2023-05-22T16:52:33.906Z,22.12
2023-05-22T16:55:01.255Z,22.06
2023-05-22T16:57:28.278Z,22.05
2023-05-22T16:59:57.193Z,21.99
2023-05-22T17:02:24.748Z,21.94
2023-05-22T17:04:51.340Z,21.93
2023-05-22T17:07:18.050Z,21.96
2023-05-22T17:09:44.729Z,21.97
2023-05-22T17:12:11.347Z,22.02
2023-05-22T17:14:38.009Z,22.04
2023-05-22T17:17:05.178Z,22.04
2023-05-22T17:19:32.408Z,21.98
2023-05-22T17:21:59.187Z,22.00
2023-05-22T17:24:27.707Z,22.01
2023-05-22T17:26:54.313Z,22.07
2023-05-22T17:29:20.919Z,22.13
2023-05-22T17:31:47.871Z,22.21
2023-05-22T17:34:14.595Z,22.28
2023-05-22T17:36:42.622Z,22.38
2023-05-22T17:39:11.363Z,22.49
2023-05-22T17:41:38.177Z,22.57
2023-05-22T17:44:04.739Z,22.63
2023-05-22T17:46:31.458Z,22.71
2023-05-22T17:48:58.259Z,22.76
2023-05-22T17:51:24.877Z,22.84
2023-05-22T17:53:56.105Z,22.86
2023-05-22T17:56:23.516Z,22.81
2023-05-22T17:58:50.763Z,22.62
2023-05-22T18:01:18.129Z,22.54
2023-05-22T18:03:46.039Z,22.49
2023-05-22T18:06:13.215Z,22.50
2023-05-22T18:08:40.095Z,22.57
2023-05-22T18:11:06.820Z,22.66
2023-05-22T18:13:33.527Z,22.72
2023-05-22T18:16:01.898Z,22.65
2023-05-22T18:18:28.623Z,22.63
2023-05-22T18:20:55.970Z,22.63
2023-05-22T18:23:22.597Z,22.64
2023-05-22T18:25:49.483Z,22.66
2023-05-22T18:28:16.094Z,22.66
2023-05-22T18:30:44.755Z,22.67
2023-05-22T18:33:12.133Z,22.67
2023-05-22T18:35:39.340Z,22.67
2023-05-22T18:38:06.481Z,22.66
2023-05-22T18:40:33.228Z,22.65
2023-05-22T18:42:59.947Z,22.66
2023-05-22T18:45:26.542Z,22.64
2023-05-22T18:47:53.374Z,22.62
2023-05-22T18:50:22.855Z,22.58
2023-05-22T18:52:50.130Z,22.50
2023-05-22T18:55:16.754Z,22.45
2023-05-22T18:57:43.368Z,22.41
2023-05-22T19:00:10.534Z,22.37
2023-05-22T19:02:37.458Z,22.33
2023-05-22T19:05:04.677Z,22.30
2023-05-22T19:07:31.668Z,22.28
2023-05-22T19:09:58.208Z,22.25
2023-05-22T19:12:25.568Z,22.24
2023-05-22T19:14:52.945Z,22.20
2023-05-22T19:17:20.729Z,22.18
2023-05-22T19:19:47.466Z,22.15
2023-05-22T19:22:17.694Z,22.12
2023-05-22T19:24:44.633Z,22.09
2023-05-22T19:27:11.294Z,22.06
2023-05-22T19:29:37.901Z,22.03
2023-05-22T19:32:04.905Z,22.00
2023-05-22T19:34:31.453Z,21.98
2023-05-22T19:36:58.199Z,21.98
2023-05-22T19:39:25.034Z,21.96
2023-05-22T19:41:52.649Z,21.94
2023-05-22T19:44:19.433Z,21.94
2023-05-22T19:46:46.608Z,21.93
2023-05-22T19:49:13.367Z,21.94
2023-05-22T19:51:39.969Z,21.95
2023-05-22T19:54:06.541Z,21.97
2023-05-22T19:56:34.987Z,21.99
2023-05-22T19:59:04.184Z,22.01
2023-05-22T20:01:30.756Z,22.01
2023-05-22T20:03:57.543Z,22.01
2023-05-22T20:06:24.260Z,21.99
2023-05-22T20:08:50.868Z,22.00
2023-05-22T20:11:17.483Z,21.99
2023-05-22T20:13:44.147Z,22.00
2023-05-22T20:16:12.586Z,22.00
2023-05-22T20:18:41.125Z,21.98
2023-05-22T20:21:08.199Z,21.97
2023-05-22T20:23:34.927Z,21.95
2023-05-22T20:26:01.554Z,21.98
2023-05-22T20:28:28.199Z,21.97
2023-05-22T20:30:54.873Z,21.97
2023-05-22T20:33:21.487Z,21.96
2023-05-22T20:35:48.866Z,21.93
2023-05-22T20:38:19.021Z,21.89
2023-05-22T20:40:48.534Z,21.86
2023-05-22T20:43:15.301Z,21.81
2023-05-22T20:45:45.691Z,21.78
2023-05-22T20:48:13.457Z,21.80
2023-05-22T20:50:40.587Z,21.80
2023-05-22T20:53:08.454Z,21.80
2023-05-22T20:55:35.196Z,21.81
2023-05-22T20:58:01.925Z,21.81
2023-05-22T21:00:28.801Z,21.81
2023-05-22T21:02:57.532Z,21.80
2023-05-22T21:05:24.892Z,21.77
2023-05-22T21:07:51.508Z,21.73
2023-05-22T21:10:18.129Z,21.69
2023-05-22T21:12:45.150Z,21.68
2023-05-22T21:15:11.927Z,21.66
2023-05-22T21:17:39.138Z,21.65
2023-05-22T21:20:06.399Z,21.64
2023-05-22T21:22:32.957Z,21.62
2023-05-22T21:24:59.586Z,21.60
2023-05-22T21:27:26.240Z,21.56
2023-05-22T21:29:52.952Z,21.51
2023-05-22T21:32:19.500Z,21.49
2023-05-22T21:34:46.735Z,21.47
2023-05-22T21:37:13.443Z,21.45
2023-05-22T21:39:40.150Z,21.42
2023-05-22T21:42:07.255Z,21.39
2023-05-22T21:44:33.879Z,21.37
2023-05-22T21:47:03.194Z,21.36
2023-05-22T21:49:29.854Z,21.35
2023-05-22T21:51:56.395Z,21.34
2023-05-22T21:54:23.013Z,21.33
2023-05-22T21:56:49.588Z,21.32
2023-05-22T21:59:16.687Z,21.32
2023-05-22T22:01:43.296Z,21.27
2023-05-22T22:04:10.046Z,21.23
2023-05-22T22:06:37.028Z,21.19
2023-05-22T22:09:03.811Z,21.15
2023-05-22T22:11:30.430Z,21.17
2023-05-22T22:13:57.183Z,21.18
2023-05-22T22:16:24.415Z,21.19
2023-05-22T22:18:51.335Z,21.17
2023-05-22T22:21:17.952Z,21.17
2023-05-22T22:23:44.544Z,21.15
2023-05-22T22:26:12.186Z,21.10
2023-05-22T22:28:39.047Z,21.03
2023-05-22T22:31:05.674Z,20.99
2023-05-22T22:33:32.824Z,20.93
2023-05-22T22:35:59.661Z,20.85
2023-05-22T22:38:26.964Z,20.71
2023-05-22T22:40:53.595Z,20.65
2023-05-22T22:43:20.414Z,20.61
2023-05-22T22:45:47.128Z,20.58
2023-05-22T22:48:13.786Z,20.59
2023-05-22T22:50:41.303Z,20.61
2023-05-22T22:53:08.124Z,20.60
2023-05-22T22:55:34.849Z,20.58
2023-05-22T22:58:01.970Z,20.56
2023-05-22T23:00:28.531Z,20.54
2023-05-22T23:02:55.137Z,20.52
2023-05-22T23:05:21.926Z,20.49
2023-05-22T23:07:48.777Z,20.44
2023-05-22T23:10:15.560Z,20.37
2023-05-22T23:12:42.319Z,20.32
2023-05-22T23:15:11.047Z,20.26
2023-05-22T23:17:38.204Z,20.23
2023-05-22T23:20:05.573Z,20.21
2023-05-22T23:22:32.215Z,20.20
2023-05-22T23:24:58.805Z,20.16
2023-05-22T23:27:26.078Z,20.10
2023-05-22T23:29:52.736Z,20.04
2023-05-22T23:32:19.336Z,20.00
2023-05-22T23:34:45.903Z,19.96
2023-05-22T23:37:12.445Z,19.96
2023-05-22T23:39:39.556Z,19.96
2023-05-22T23:42:09.800Z,19.92
2023-05-22T23:44:37.000Z,19.91
2023-05-22T23:47:03.777Z,19.87
2023-05-22T23:49:30.400Z,19.83
2023-05-22T23:51:56.974Z,19.81
2023-05-22T23:54:23.555Z,19.79
2023-05-22T23:56:50.554Z,19.76
2023-05-22T23:59:17.249Z,19.75
